Robinson, Diana
United StatesWomanBorn 19662004 – 2016Runner id 104169
Events
36
2004 – 2016
Best pace
9.732
km/h · 2006
Best finish
8th
of 41 · 2007
Distance raced
2,589
km · splits not double-counted
Pace over time
km/h · higher is faster
Pace over time: 36 races from 2004 to 2016, ranging from 2.30 to 9.93 kilometres per hour, where higher is faster. A second, age-graded series is drawn above it; the gap between the two is the age credit.
- Actual pace
- Age-graded pace
Results
| Date | Event | Distance | Result | Pace km/h | Placing |
|---|---|---|---|---|---|
| 2004-03-13 | Chuckanut 50KUnited States | 50km | 6:22:10 h | 7.850 | 133/197 |
| 2004-10-02 | Baker Lake 50K Ultra Trail RunUnited States | 50km | 6:22:32 h | 7.842 | 44/67 |
| 2005-03-19 | Chuckanut 50KUnited States | 50km | 6:50:21 h | 7.311 | 169/210 |
| 2005-04-17 | 50km | 5:51:32 h | 8.534 | 34/41 | |
| 2005-10-01 | Baker Lake 50K Ultra Trail RunUnited States | 50km | 6:47:24 h | 7.364 | 68/101 |
| 2006-03-18 | Chuckanut 50KUnited States | 50km | 6:06:02 h | 8.196 | 128/242 |
| 2006-04-23 | 50km | 5:46:29 h | 8.658 | 40/49 | |
| 2006-11-04 | ORRC Autumn Leaves 50 Mile RunUnited States | 50mi | 8:16:05 h | 9.732 | 11/29 |
| 2007-02-03 | Pigtails Run 50KUnited States | 50km | 5:24:18 h | 9.251 | 31/44 |
| 2007-03-17 | 24h | 128.747 km | 5.364 | 8/41 | |
| 2007-04-22 | 50mi | 9:51:56 h | 8.156 | 41/54 | |
| 2007-05-19 | Watershed Preserve 12 Hr Trail RaceUnited States | 12h | 89.978 km | 7.498 | 14/56 |
| 2007-06-02 | Blanchard Mountain Trail UltraUnited States | 50km | 8:45:00 h | 5.714 | 13/15 |
| 2007-06-09 | Lake Youngs UltraUnited States | 28.8mi | 5:17:00 h | 8.773 | 41/62 |
| 2007-07-14 | 50km | 8:30:00 h | 5.882 | 14/17 | |
| 2007-08-25 | 100mi | 23:28:00 h | 6.858 | 21/66 | |
| 2008-05-10 | Endurance Challenge - Washington Trail 50 kmUnited States | 50km | 9:05:14 h | 5.502 | 52/53 |
| 2009-01-24 | Pigtails Run 50KUnited States | 50km | 5:41:00 h | 8.798 | 32/49 |
| 2009-03-21 | Chuckanut 50KUnited States | 50km | 6:33:46 h | 7.619 | 202/270 |
| 2009-05-16 | Watershed Preserve 12 Hr Trail RaceUnited States | 12h | 51.901 km | 4.325 | 65/66 |
| 2010-03-20 | Pacific Rim One DayUnited States | 24h | 69.201 km | 2.883 | 48/73 |
| 2011-03-12 | 50km | 6:29:09 h | 7.709 | 23/36 | |
| 2011-03-19 | 24h | 64.373 km | 2.682 | 50/67 | |
| 2011-04-03 | 50km | 8:04:07 h | 6.197 | 35/63 | |
| 2011-04-23 | Skagit Valley UltraUnited States | 50km | 5:24:38 h | 9.241 | 3/14 |
| 2011-08-14 | 12h | 53.954 km | 4.496 | 63/70 | |
| 2011-10-01 | 50km | 6:51:56 h | 7.283 | 63/122 | |
| 2012-01-28 | Lake Youngs Nuts RunUnited States | 50km | 5:37:35 h | 8.887 | 34/57 |
| 2012-08-12 | 12h | 51.502 km | 4.292 | 63/74 | |
| 2013-08-11 | Transcendence 12 Hour Ultra RunUnited States | 12h | 80.932 km | 6.744 | 16/60 |
| 2013-12-30 | 48h | 162.191 km | 3.379 | 57/79 | |
| 2014-08-16 | Hamster Endurance Runs 12 Hour RunUnited States | 12h | 80.467 km | 6.706 | 13/23 |
| 2014-09-21 | 7h | 56.552 km | 8.079 | 5/13 | |
| 2014-10-25 | 50km | 5:28:16 h | 9.139 | 21/56 | |
| 2014-12-28 | 6d | 331.141 km | 2.300 | 28/47 | |
| 2016-08-13 | 6h | 50.211 km | 8.369 | 3/5 |